createdAt,value
2018-07-17T00:02:27.423Z,3.97
2018-07-17T00:04:56.052Z,4.33
2018-07-17T00:07:24.724Z,3.90
2018-07-17T00:09:53.461Z,4.23
2018-07-17T00:12:22.114Z,4.27
2018-07-17T00:14:50.800Z,3.90
2018-07-17T00:17:19.487Z,3.73
2018-07-17T00:19:48.976Z,3.80
2018-07-17T00:22:17.618Z,3.70
2018-07-17T00:24:46.317Z,3.67
2018-07-17T00:27:14.984Z,3.20
2018-07-17T00:29:43.626Z,3.73
2018-07-17T00:32:12.384Z,4.37
2018-07-17T00:34:41.098Z,4.00
2018-07-17T00:37:09.769Z,4.00
2018-07-17T00:39:38.508Z,4.70
2018-07-17T00:42:07.153Z,3.87
2018-07-17T00:44:35.786Z,4.23
2018-07-17T00:47:04.606Z,4.43
2018-07-17T00:49:33.262Z,4.57
2018-07-17T00:52:02.011Z,4.07
2018-07-17T00:54:31.090Z,4.10
2018-07-17T00:56:59.738Z,3.80
2018-07-17T00:59:28.415Z,3.77
2018-07-17T01:02:02.546Z,3.97
2018-07-17T01:04:36.569Z,4.33
2018-07-17T01:07:10.466Z,4.43
2018-07-17T01:09:44.493Z,3.77
2018-07-17T01:12:13.256Z,4.90
2018-07-17T01:14:50.820Z,4.37
2018-07-17T01:17:19.675Z,3.50
2018-07-17T01:19:48.438Z,3.70
2018-07-17T01:22:17.155Z,4.57
2018-07-17T01:24:45.819Z,3.30
2018-07-17T01:27:14.479Z,4.83
2018-07-17T01:29:43.236Z,5.03
2018-07-17T01:32:15.072Z,4.93
2018-07-17T01:34:43.805Z,4.20
2018-07-17T01:37:12.741Z,4.43
2018-07-17T01:39:41.458Z,4.57
2018-07-17T01:42:10.116Z,4.33
2018-07-17T01:44:38.901Z,4.30
2018-07-17T01:47:07.606Z,4.00
2018-07-17T01:49:36.277Z,4.47
2018-07-17T01:52:05.060Z,4.87
2018-07-17T01:54:33.794Z,4.60
2018-07-17T01:57:02.551Z,4.77
2018-07-17T01:59:31.273Z,4.53
2018-07-17T02:02:00.735Z,4.90
2018-07-17T02:04:29.458Z,4.97
2018-07-17T02:06:58.226Z,4.80
2018-07-17T02:09:26.969Z,4.87
2018-07-17T02:11:55.630Z,5.83
2018-07-17T02:14:25.431Z,4.73
2018-07-17T02:16:54.187Z,4.57
2018-07-17T02:19:22.977Z,4.40
2018-07-17T02:21:51.622Z,5.03
2018-07-17T02:24:20.270Z,5.30
2018-07-17T02:26:48.950Z,5.63
2018-07-17T02:29:17.587Z,4.67
2018-07-17T02:31:46.340Z,4.40
2018-07-17T02:34:14.949Z,4.30
2018-07-17T02:36:43.652Z,4.57
2018-07-17T02:39:12.441Z,5.40
2018-07-17T02:41:41.169Z,4.40
2018-07-17T02:44:09.809Z,4.20
2018-07-17T02:46:38.435Z,4.60
2018-07-17T02:49:07.109Z,4.93
2018-07-17T02:51:35.793Z,4.43
2018-07-17T02:54:04.524Z,4.50
2018-07-17T02:56:33.162Z,4.83
2018-07-17T02:59:01.975Z,4.80
2018-07-17T03:01:30.751Z,4.70
2018-07-17T03:03:59.369Z,5.10
2018-07-17T03:06:28.211Z,4.50
2018-07-17T03:08:56.999Z,5.10
2018-07-17T03:11:25.767Z,5.70
2018-07-17T03:13:54.520Z,5.47
2018-07-17T03:16:23.221Z,5.10
2018-07-17T03:18:51.967Z,5.33
2018-07-17T03:21:20.555Z,6.27
2018-07-17T03:23:49.242Z,5.67
2018-07-17T03:26:17.844Z,5.60
2018-07-17T03:28:46.539Z,5.67
2018-07-17T03:31:15.233Z,6.47
2018-07-17T03:33:43.883Z,6.37
2018-07-17T03:36:12.661Z,5.00
2018-07-17T03:38:41.386Z,6.70
2018-07-17T03:41:10.102Z,5.20
2018-07-17T03:43:38.823Z,6.13
2018-07-17T03:46:07.775Z,5.07
2018-07-17T03:48:36.604Z,5.77
2018-07-17T03:51:06.027Z,5.10
2018-07-17T03:53:34.819Z,6.63
2018-07-17T03:56:03.559Z,5.47
2018-07-17T03:58:32.303Z,6.37
2018-07-17T04:01:00.988Z,5.07
2018-07-17T04:03:29.705Z,5.67
2018-07-17T04:05:58.434Z,6.00
2018-07-17T04:08:27.069Z,5.97
2018-07-17T04:10:55.866Z,6.47
2018-07-17T04:13:24.575Z,5.33
2018-07-17T04:15:53.252Z,6.47
2018-07-17T04:18:21.980Z,7.83
2018-07-17T04:20:50.863Z,8.70
2018-07-17T04:23:19.593Z,7.30
2018-07-17T04:25:48.369Z,7.17
2018-07-17T04:28:17.084Z,7.67
2018-07-17T04:30:45.935Z,5.87
2018-07-17T04:33:14.625Z,6.80
2018-07-17T04:35:43.291Z,6.80
2018-07-17T04:38:12.005Z,7.07
2018-07-17T04:40:43.881Z,5.90
2018-07-17T04:43:15.350Z,5.70
2018-07-17T04:45:44.104Z,5.83
2018-07-17T04:48:12.898Z,6.93
2018-07-17T04:50:41.577Z,6.73
2018-07-17T04:53:10.298Z,7.60
2018-07-17T04:55:39.059Z,7.23
2018-07-17T04:58:07.783Z,6.13
2018-07-17T05:00:36.564Z,5.80
2018-07-17T05:03:05.333Z,6.47
2018-07-17T05:05:34.069Z,6.10
2018-07-17T05:08:02.726Z,5.83
2018-07-17T05:10:31.481Z,6.37
2018-07-17T05:13:00.183Z,6.40
2018-07-17T05:15:28.963Z,5.70
2018-07-17T05:17:57.638Z,6.50
2018-07-17T05:20:26.733Z,6.30
2018-07-17T05:22:55.848Z,5.87
2018-07-17T05:25:24.625Z,6.93
2018-07-17T05:27:52.950Z,6.53
2018-07-17T05:30:21.659Z,6.87
2018-07-17T05:32:50.427Z,6.63
2018-07-17T05:35:19.105Z,6.60
2018-07-17T05:37:47.859Z,7.10
2018-07-17T05:40:16.685Z,6.67
2018-07-17T05:42:45.487Z,6.57
2018-07-17T05:45:14.246Z,6.60
2018-07-17T05:47:43.260Z,6.93
2018-07-17T05:50:12.803Z,7.00
2018-07-17T05:52:41.621Z,8.03
2018-07-17T05:55:10.383Z,6.00
2018-07-17T05:57:39.118Z,8.27
2018-07-17T06:00:09.361Z,6.93
2018-07-17T06:02:38.084Z,6.63
2018-07-17T06:05:06.785Z,6.43
2018-07-17T06:07:35.570Z,6.23
2018-07-17T06:10:04.398Z,5.80
2018-07-17T06:12:33.178Z,6.83
2018-07-17T06:15:01.865Z,5.63
2018-07-17T06:17:30.646Z,5.83
2018-07-17T06:19:59.277Z,6.10
2018-07-17T06:22:28.008Z,6.00
2018-07-17T06:24:56.689Z,6.10
2018-07-17T06:27:25.419Z,5.93
2018-07-17T06:29:54.083Z,6.13
2018-07-17T06:32:22.718Z,6.40
2018-07-17T06:34:51.380Z,5.50
2018-07-17T06:37:20.240Z,6.13
2018-07-17T06:39:49.032Z,6.27
2018-07-17T06:42:18.031Z,6.90
2018-07-17T06:44:47.912Z,7.33
2018-07-17T06:47:16.734Z,6.60
2018-07-17T06:49:45.519Z,7.57
2018-07-17T06:52:28.771Z,6.53
2018-07-17T06:54:58.179Z,7.40
2018-07-17T06:57:26.986Z,7.17
2018-07-17T06:59:55.686Z,7.13
2018-07-17T07:02:24.455Z,6.70
2018-07-17T07:04:53.258Z,7.10
2018-07-17T07:07:22.220Z,6.53
2018-07-17T07:09:50.969Z,7.23
2018-07-17T07:12:19.640Z,6.20
2018-07-17T07:14:48.390Z,6.67
2018-07-17T07:17:17.070Z,6.43
2018-07-17T07:19:45.887Z,6.50
2018-07-17T07:22:14.748Z,7.07
2018-07-17T07:24:43.456Z,6.07
2018-07-17T07:27:12.145Z,6.00
2018-07-17T07:29:41.007Z,5.87
2018-07-17T07:32:09.751Z,8.83
2018-07-17T07:34:38.442Z,8.00
2018-07-17T07:37:07.235Z,7.87
2018-07-17T07:39:35.978Z,6.83
2018-07-17T07:42:04.804Z,5.43
2018-07-17T07:44:33.475Z,4.40
2018-07-17T07:47:02.312Z,6.10
2018-07-17T07:49:31.099Z,5.90
2018-07-17T07:51:59.825Z,5.97
2018-07-17T07:54:28.540Z,6.10
2018-07-17T07:56:57.767Z,6.50
2018-07-17T07:59:26.966Z,6.60
2018-07-17T08:01:55.832Z,7.30
2018-07-17T08:04:24.529Z,7.07
2018-07-17T08:06:53.264Z,7.93
2018-07-17T08:09:22.342Z,7.90
2018-07-17T08:11:51.389Z,7.00
2018-07-17T08:14:20.094Z,7.63
2018-07-17T08:16:49.012Z,8.20
2018-07-17T08:19:17.674Z,7.70
2018-07-17T08:21:46.434Z,6.23
2018-07-17T08:24:15.109Z,6.53
2018-07-17T08:26:43.472Z,6.57
2018-07-17T08:29:12.237Z,6.00
2018-07-17T08:31:40.927Z,5.33
2018-07-17T08:34:09.987Z,5.80
2018-07-17T08:36:38.703Z,5.50
2018-07-17T08:39:09.103Z,5.83
2018-07-17T08:41:37.966Z,5.83
2018-07-17T08:44:06.806Z,8.80
2018-07-17T08:46:35.612Z,5.27
2018-07-17T08:49:04.410Z,5.10
2018-07-17T08:51:32.996Z,6.57
2018-07-17T08:54:01.850Z,5.47
2018-07-17T08:56:30.657Z,5.10
2018-07-17T08:58:59.346Z,5.17
2018-07-17T09:01:28.101Z,5.63
2018-07-17T09:03:56.931Z,5.57
2018-07-17T09:06:25.720Z,6.10
2018-07-17T09:08:54.438Z,4.87
2018-07-17T09:11:22.774Z,7.10
2018-07-17T09:13:51.470Z,6.30
2018-07-17T09:16:20.273Z,6.93
2018-07-17T09:18:48.951Z,5.73
2018-07-17T09:21:17.680Z,6.53
2018-07-17T09:23:46.348Z,6.20
2018-07-17T09:26:15.411Z,5.50
2018-07-17T09:28:44.925Z,5.93
2018-07-17T09:31:13.672Z,6.43
2018-07-17T09:33:43.001Z,6.10
2018-07-17T09:36:12.129Z,5.80
2018-07-17T09:38:41.188Z,4.93
2018-07-17T09:41:09.871Z,6.10
2018-07-17T09:43:38.637Z,5.77
2018-07-17T09:46:07.298Z,5.63
2018-07-17T09:48:36.054Z,7.07
2018-07-17T09:51:04.698Z,5.93
2018-07-17T09:53:35.680Z,5.80
2018-07-17T09:56:04.490Z,6.80
2018-07-17T09:58:33.127Z,4.60
2018-07-17T10:01:07.365Z,4.70
2018-07-17T10:03:36.465Z,4.90
2018-07-17T10:06:05.322Z,4.47
2018-07-17T10:08:34.038Z,3.87
2018-07-17T10:11:02.855Z,4.50
2018-07-17T10:13:31.650Z,4.57
2018-07-17T10:16:00.450Z,3.87
2018-07-17T10:18:29.276Z,4.23
2018-07-17T10:20:58.078Z,4.70
2018-07-17T10:23:26.736Z,3.50
2018-07-17T10:25:55.417Z,3.10
2018-07-17T10:28:24.040Z,2.67
2018-07-17T10:30:52.724Z,3.23
2018-07-17T10:33:21.448Z,3.50
2018-07-17T10:35:50.115Z,3.53
2018-07-17T10:38:19.363Z,4.40
2018-07-17T10:40:48.092Z,3.60
2018-07-17T10:43:16.885Z,3.30
2018-07-17T10:45:45.597Z,3.83
2018-07-17T10:48:14.291Z,3.03
2018-07-17T10:50:42.702Z,3.83
2018-07-17T10:53:11.289Z,3.70
2018-07-17T10:55:40.261Z,4.00
2018-07-17T10:58:08.950Z,3.80
2018-07-17T11:00:38.031Z,3.67
2018-07-17T11:03:06.664Z,3.57
2018-07-17T11:05:35.339Z,3.60
2018-07-17T11:08:04.008Z,3.60
2018-07-17T11:10:32.608Z,4.07
2018-07-17T11:13:01.313Z,3.43
2018-07-17T11:15:29.964Z,3.70
2018-07-17T11:17:58.610Z,3.93
2018-07-17T11:20:27.484Z,3.20
2018-07-17T11:22:56.186Z,2.90
2018-07-17T11:25:24.826Z,3.97
2018-07-17T11:27:53.589Z,3.67
2018-07-17T11:30:22.161Z,4.00
2018-07-17T11:32:50.803Z,3.10
2018-07-17T11:35:19.438Z,3.13
2018-07-17T11:37:48.160Z,2.80
2018-07-17T11:40:16.776Z,3.67
2018-07-17T11:42:45.761Z,3.33
2018-07-17T11:45:14.527Z,3.33
2018-07-17T11:47:43.358Z,2.97
2018-07-17T11:50:12.104Z,4.17
2018-07-17T11:52:40.794Z,3.30
2018-07-17T11:55:09.566Z,3.10
2018-07-17T11:57:38.301Z,3.17
2018-07-17T12:00:07.450Z,3.87
2018-07-17T12:02:36.184Z,4.00
2018-07-17T12:05:05.272Z,4.43
2018-07-17T12:07:33.950Z,4.10
2018-07-17T12:10:02.696Z,3.70
2018-07-17T12:12:31.509Z,3.63
2018-07-17T12:15:00.266Z,3.57
2018-07-17T12:17:28.942Z,3.30
2018-07-17T12:19:57.618Z,4.27
2018-07-17T12:22:26.186Z,3.23
2018-07-17T12:24:54.941Z,3.70
2018-07-17T12:27:23.640Z,4.73
2018-07-17T12:29:52.298Z,4.37
2018-07-17T12:32:21.021Z,3.53
2018-07-17T12:34:50.431Z,4.80
2018-07-17T12:37:19.147Z,4.67
2018-07-17T12:39:47.996Z,4.90
2018-07-17T12:42:17.335Z,5.97
2018-07-17T12:44:46.018Z,5.80
2018-07-17T12:47:14.943Z,5.80
2018-07-17T12:49:43.692Z,5.33
2018-07-17T12:52:12.330Z,4.97
2018-07-17T12:54:41.001Z,4.70
2018-07-17T12:57:09.669Z,4.80
2018-07-17T12:59:38.344Z,4.50
2018-07-17T13:02:06.967Z,4.03
2018-07-17T13:04:35.697Z,4.20
2018-07-17T13:07:04.520Z,4.33
2018-07-17T13:09:33.175Z,3.57
2018-07-17T13:12:02.095Z,3.70
2018-07-17T13:14:30.761Z,2.80
2018-07-17T13:16:59.390Z,3.27
2018-07-17T13:19:28.104Z,3.63
2018-07-17T13:21:56.786Z,3.23
2018-07-17T13:24:25.478Z,3.43
2018-07-17T13:26:54.862Z,3.90
2018-07-17T13:29:23.540Z,3.20
2018-07-17T13:31:52.221Z,3.40
2018-07-17T13:34:21.050Z,2.97
2018-07-17T13:36:50.015Z,3.57
2018-07-17T13:39:18.921Z,2.90
2018-07-17T13:41:47.559Z,3.00
2018-07-17T13:44:16.324Z,2.77
2018-07-17T13:46:45.006Z,2.90
2018-07-17T13:49:13.741Z,2.67
2018-07-17T13:51:42.532Z,2.90
2018-07-17T13:54:11.246Z,2.90
2018-07-17T13:56:39.899Z,3.47
2018-07-17T13:59:08.624Z,2.80
2018-07-17T14:01:37.346Z,2.93
2018-07-17T14:04:06.072Z,2.30
2018-07-17T14:06:34.714Z,2.40
2018-07-17T14:09:03.972Z,2.40
2018-07-17T14:11:32.708Z,2.67
2018-07-17T14:14:01.470Z,2.67
2018-07-17T14:16:30.250Z,2.47
2018-07-17T14:18:59.108Z,2.10
2018-07-17T14:21:27.810Z,1.83
2018-07-17T14:23:57.585Z,2.30
2018-07-17T14:26:26.319Z,2.97
2018-07-17T14:28:55.110Z,2.10
2018-07-17T14:31:24.743Z,2.07
2018-07-17T14:33:53.387Z,2.83
2018-07-17T14:36:23.300Z,2.33
2018-07-17T14:38:52.046Z,3.27
2018-07-17T14:41:20.809Z,2.87
2018-07-17T14:43:49.537Z,2.73
2018-07-17T14:46:18.605Z,1.93
2018-07-17T14:48:47.244Z,2.57
2018-07-17T14:51:15.871Z,2.50
2018-07-17T14:53:45.167Z,2.97
2018-07-17T14:56:13.862Z,2.17
2018-07-17T14:58:42.480Z,2.33
2018-07-17T15:01:11.071Z,2.77
2018-07-17T15:03:39.679Z,3.00
2018-07-17T15:06:08.332Z,2.73
2018-07-17T15:08:37.137Z,2.83
2018-07-17T15:11:06.029Z,2.40
2018-07-17T15:13:34.907Z,3.13
2018-07-17T15:16:03.893Z,3.37
2018-07-17T15:18:32.595Z,2.50
2018-07-17T15:21:01.294Z,2.50
2018-07-17T15:23:29.947Z,2.40
2018-07-17T15:25:59.050Z,2.50
2018-07-17T15:28:31.633Z,3.30
2018-07-17T15:31:00.811Z,2.80
2018-07-17T15:33:32.098Z,3.30
2018-07-17T15:36:01.036Z,2.90
2018-07-17T15:38:38.694Z,2.80
2018-07-17T15:41:07.833Z,3.53
2018-07-17T15:43:36.984Z,2.80
2018-07-17T15:46:05.939Z,3.07
2018-07-17T15:48:34.682Z,4.00
2018-07-17T15:51:03.576Z,2.97
2018-07-17T15:53:32.954Z,4.10
2018-07-17T15:56:01.733Z,3.17
2018-07-17T15:58:32.378Z,2.73
2018-07-17T16:01:02.822Z,3.23
2018-07-17T16:03:32.455Z,2.97
2018-07-17T16:06:01.229Z,2.70
2018-07-17T16:08:31.269Z,3.10
2018-07-17T16:11:00.027Z,2.57
2018-07-17T16:13:28.859Z,2.73
2018-07-17T16:15:57.827Z,2.93
2018-07-17T16:18:26.558Z,3.07
2018-07-17T16:20:55.324Z,2.47
2018-07-17T16:23:24.009Z,2.40
2018-07-17T16:25:52.739Z,2.73
2018-07-17T16:28:21.115Z,2.70
2018-07-17T16:30:49.833Z,2.67
2018-07-17T16:33:18.755Z,3.47
2018-07-17T16:35:47.471Z,3.23
2018-07-17T16:38:16.208Z,4.13
2018-07-17T16:40:44.946Z,3.53
2018-07-17T16:43:13.664Z,3.27
2018-07-17T16:45:42.629Z,3.50
2018-07-17T16:48:11.410Z,3.67
2018-07-17T16:50:40.167Z,5.37
2018-07-17T16:53:09.928Z,2.50
2018-07-17T16:55:38.683Z,3.57
2018-07-17T16:58:07.716Z,3.67
2018-07-17T17:00:36.999Z,3.90
2018-07-17T17:03:05.899Z,2.83
2018-07-17T17:05:34.656Z,3.17
2018-07-17T17:08:03.388Z,3.97
2018-07-17T17:10:32.194Z,3.30
2018-07-17T17:13:00.965Z,3.10
2018-07-17T17:15:29.743Z,3.37
2018-07-17T17:17:58.430Z,3.30
2018-07-17T17:20:27.392Z,4.03
2018-07-17T17:22:56.031Z,4.13
2018-07-17T17:25:24.745Z,3.90
2018-07-17T17:27:53.589Z,3.50
2018-07-17T17:30:22.341Z,4.40
2018-07-17T17:32:51.041Z,3.80
2018-07-17T17:35:19.791Z,3.67
2018-07-17T17:37:48.669Z,3.40
2018-07-17T17:40:17.415Z,4.00
2018-07-17T17:42:46.261Z,3.40
2018-07-17T17:45:14.947Z,3.80
2018-07-17T17:47:43.910Z,3.50
2018-07-17T17:50:12.602Z,4.40
2018-07-17T17:52:42.123Z,3.30
2018-07-17T17:55:11.824Z,3.83
2018-07-17T17:57:40.618Z,3.63
2018-07-17T18:00:09.201Z,3.87
2018-07-17T18:02:38.694Z,3.20
2018-07-17T18:05:07.493Z,3.50
2018-07-17T18:07:36.320Z,3.57
2018-07-17T18:10:05.108Z,4.07
2018-07-17T18:12:33.606Z,3.47
2018-07-17T18:15:05.313Z,4.10
2018-07-17T18:17:34.318Z,4.00
2018-07-17T18:20:03.039Z,3.70
2018-07-17T18:22:31.827Z,4.60
2018-07-17T18:25:00.740Z,4.50
2018-07-17T18:27:29.627Z,4.60
2018-07-17T18:29:58.447Z,5.13
2018-07-17T18:32:27.261Z,4.50
2018-07-17T18:34:55.973Z,4.70
2018-07-17T18:37:24.668Z,3.80
2018-07-17T18:39:53.511Z,3.80
2018-07-17T18:42:22.364Z,4.00
2018-07-17T18:44:51.035Z,4.37
2018-07-17T18:47:19.816Z,4.60
2018-07-17T18:49:48.687Z,5.20
2018-07-17T18:52:17.526Z,3.80
2018-07-17T18:54:46.364Z,4.50
2018-07-17T18:57:14.646Z,3.77
2018-07-17T18:59:43.693Z,3.73
2018-07-17T19:02:12.742Z,4.10
2018-07-17T19:04:41.516Z,4.37
2018-07-17T19:07:11.131Z,2.93
2018-07-17T19:09:39.831Z,3.93
2018-07-17T19:12:08.612Z,3.93
2018-07-17T19:14:37.498Z,3.80
2018-07-17T19:17:06.508Z,3.60
2018-07-17T19:19:35.228Z,4.67
2018-07-17T19:22:04.101Z,4.00
2018-07-17T19:24:34.071Z,4.57
2018-07-17T19:27:04.495Z,4.23
2018-07-17T19:29:34.287Z,3.20
2018-07-17T19:32:02.960Z,3.77
2018-07-17T19:34:32.042Z,3.67
2018-07-17T19:37:01.013Z,4.23
2018-07-17T19:39:29.765Z,3.80
2018-07-17T19:41:58.517Z,3.80
2018-07-17T19:44:28.150Z,4.07
2018-07-17T19:46:57.354Z,4.23
2018-07-17T19:49:26.039Z,4.20
2018-07-17T19:51:55.057Z,3.83
2018-07-17T19:54:23.742Z,3.90
2018-07-17T19:56:52.740Z,3.60
2018-07-17T19:59:21.666Z,3.63
2018-07-17T20:01:50.455Z,2.90
2018-07-17T20:04:19.287Z,3.60
2018-07-17T20:06:48.234Z,3.67
2018-07-17T20:09:17.181Z,4.30
2018-07-17T20:11:46.011Z,4.07
2018-07-17T20:14:14.817Z,4.63
2018-07-17T20:16:43.549Z,4.27
2018-07-17T20:19:12.582Z,3.50
2018-07-17T20:21:41.247Z,4.70
2018-07-17T20:24:10.088Z,4.00
2018-07-17T20:26:39.000Z,4.50
2018-07-17T20:29:07.778Z,4.27
2018-07-17T20:31:36.536Z,4.73
2018-07-17T20:34:05.402Z,4.07
2018-07-17T20:36:34.309Z,3.87
2018-07-17T20:39:03.638Z,4.63
2018-07-17T20:41:32.437Z,4.13
2018-07-17T20:44:01.320Z,5.13
2018-07-17T20:46:31.093Z,4.80
2018-07-17T20:48:59.828Z,6.00
2018-07-17T20:51:28.608Z,5.07
2018-07-17T20:53:57.395Z,4.60
2018-07-17T20:56:26.044Z,5.20
2018-07-17T20:58:54.825Z,4.83
2018-07-17T21:01:24.139Z,5.83
2018-07-17T21:03:53.054Z,4.90
2018-07-17T21:06:21.873Z,5.00
2018-07-17T21:08:50.553Z,5.20
2018-07-17T21:11:25.597Z,5.23
2018-07-17T21:13:54.375Z,5.50
2018-07-17T21:16:23.074Z,4.70
2018-07-17T21:18:51.817Z,4.97
2018-07-17T21:21:20.523Z,5.37
2018-07-17T21:23:49.182Z,4.67
2018-07-17T21:26:17.865Z,5.67
2018-07-17T21:28:46.846Z,4.77
2018-07-17T21:31:15.714Z,4.10
2018-07-17T21:33:44.011Z,5.20
2018-07-17T21:36:12.691Z,5.73
2018-07-17T21:38:40.996Z,5.23
2018-07-17T21:41:09.706Z,5.40
2018-07-17T21:43:38.536Z,6.50
2018-07-17T21:46:07.339Z,5.13
2018-07-17T21:48:41.564Z,5.17
2018-07-17T21:51:10.338Z,6.53
2018-07-17T21:53:39.085Z,4.97
2018-07-17T21:56:08.419Z,6.27
2018-07-17T21:58:37.332Z,5.70
2018-07-17T22:01:12.086Z,5.50
2018-07-17T22:03:40.893Z,6.00
2018-07-17T22:06:10.254Z,6.80
2018-07-17T22:08:38.924Z,6.53
2018-07-17T22:11:32.920Z,6.33
2018-07-17T22:14:01.605Z,5.40
2018-07-17T22:16:30.552Z,5.97
2018-07-17T22:19:03.619Z,6.00
2018-07-17T22:21:32.889Z,6.80
2018-07-17T22:24:01.761Z,7.17
2018-07-17T22:26:30.374Z,6.63
2018-07-17T22:28:59.371Z,6.67
2018-07-17T22:34:12.904Z,5.40
2018-07-17T22:36:41.627Z,6.90
2018-07-17T22:39:10.773Z,6.77
2018-07-17T22:41:40.906Z,6.40
2018-07-17T22:44:09.642Z,6.30
2018-07-17T22:46:39.180Z,6.60
2018-07-17T22:49:08.372Z,5.67
2018-07-17T22:51:36.986Z,6.07
2018-07-17T22:54:05.626Z,6.47
2018-07-17T22:56:34.247Z,5.80
2018-07-17T22:59:02.994Z,5.37
2018-07-17T23:01:32.606Z,6.73
2018-07-17T23:04:02.827Z,5.33
2018-07-17T23:06:32.851Z,5.67
2018-07-17T23:09:01.545Z,5.27
2018-07-17T23:11:30.245Z,6.23
2018-07-17T23:13:58.948Z,5.70
2018-07-17T23:16:27.610Z,6.13
2018-07-17T23:24:05.148Z,6.00
2018-07-17T23:26:33.840Z,5.90
2018-07-17T23:29:02.615Z,6.30
2018-07-17T23:31:32.405Z,6.87
2018-07-17T23:34:01.206Z,5.23
2018-07-17T23:36:29.951Z,5.27
2018-07-17T23:38:58.922Z,6.50
2018-07-17T23:41:30.662Z,7.03
2018-07-17T23:43:59.460Z,6.60
2018-07-17T23:46:29.256Z,5.73
2018-07-17T23:48:57.869Z,7.53
2018-07-17T23:51:30.056Z,6.23
2018-07-17T23:53:58.671Z,6.43
2018-07-17T23:56:27.368Z,7.23
2018-07-17T23:58:58.503Z,6.77
